Albert, New Mexico
Current Conditions -  °F | °C
As of 10:53 AM on Thursday 30 Oct 2014 (Local Time) from KTCC Reporting Station
Clear Clear  
Wind Chill: 68°   Ceiling: Unl
Heat Index: 68°   Visibility: 10mi
Dew Point: 24°   Wind: 22mph
Humidity: 19%   Direction: 40°NE
Pressure: 30.29"   Gusts: 30mph
Location:  35.7181°N, 103.591°W
Report Text: KTCC 301653Z AUTO 04019G26KT 10SM CLR 20/M04 A3029 RMK AO2 PK WND 05026/1650 SLP214 T02001044
Loading
Personal Weather Stations






























Interactive Weather Map New forecast layout! Learn more

10-Day Weather Forecast

Advertisements
Track Severe Weather on mobile